Billings, MT

3:49 AM MDT on October 25, 2014 (GMT -0600)
South Big Horn County | Change Station
CLOSE
Current Station
Airport
Location: Greybull,
Elevation: 3934 ft
Nearby Weather Stations

Elev 3934 ft 44.52 °N, 108.08 °W | Updated 56 minutes ago

Partly Cloudy
Partly Cloudy
39 °F
Feels Like 37 °F
N
4
Wind Variable Wind from ESE

Today
High -- | Low -- °F
--% Chance of Precip.
Yesterday
High -- | Low -- °F
Precip. -- in
7:44 AM 6:10 PM
New Moon, 2% visible
Pressure 30.07 in
Visibility 10.0 miles
Clouds Clear
Windchill 37 °F
Dew Point 31 °F
Humidity 73%
Rainfall 0.00 in
Snow Depth Not available.
UV 0 out of 12
Pollen 1.70 out of 12
Air Quality Not available.
Flu Activity No Activity
METAR KGEY 250853Z AUTO 12003KT 10SM CLR 04/M01 A3011 RMK AO2 SLP183 T00391006 53007

More Conditions Fewer Conditions

Pressure 30.07 in
Visibility 10.0 miles
Clouds Clear
Windchill 37 °F
Dew Point 31 °F
Humidity 73%
Rainfall 0.00 in
Snow Depth Not available.
UV 0 out of 12
Pollen 1.70 out of 12
Air Quality Not available.
Flu Activity No Activity
METAR KGEY 250853Z AUTO 12003KT 10SM CLR 04/M01 A3011 RMK AO2 SLP183 T00391006 53007

More Conditions Fewer Conditions

10-Day Weather Forecast

Almanac

Astronomy

Oct. 25, 2014 Rise Set
Actual Time 7:44 AM MDT 6:10 PM MDT
Civil Twilight 7:13 AM MDT 6:41 PM MDT
Nautical Twilight 6:38 AM MDT 7:16 PM MDT
Astronomical Twilight 6:04 AM MDT 7:50 PM MDT
Moon 9:30 AM MDT 7:31 PM MDT
Length of Visible Light 11h 27m
Length of Day
10h 26m
Tomorrow will be 3m 0s shorter.
New Moon, 2% of the Moon is Illuminated
Today
New Moon
Oct 30
First Quarter
Nov 6
Full
Nov 14
Last Quarter
Nov 22
New

Today's Extremes

State Highs State Lows

Community

WunderPhotos

Upload Photos

1,764,796 photos uploaded!

Nearby

Snow Depth

Station Depth Elevation
Burnt Mountain 1 in 5880 ft
Crystal Lake 1 in 6050 ft
Fisher Creek 2 in 9100 ft
Northeast Entrance 0 in 7350 ft
Monument Peak 0 in 8850 ft

Earthquake Activity

City Distance Mag. Time & Date
No recent earthquake activity has been reported nearby.
Minimum magnitude displayed is 2.5.

Coastal Water Temperatures

Place Temperature
No Stations Reporting

Nearby Weather Stations